sensor_id;sensor_type;location;lat;lon;timestamp;temperature;humidity
44190;DHT22;29856;52.144;5.430;2023-12-29T00:02:24;11.10;99.90
44190;DHT22;29856;52.144;5.430;2023-12-29T00:04:49;11.20;99.90
44190;DHT22;29856;52.144;5.430;2023-12-29T00:07:15;11.20;99.90
44190;DHT22;29856;52.144;5.430;2023-12-29T00:09:41;11.20;99.90
44190;DHT22;29856;52.144;5.430;2023-12-29T00:12:07;11.20;99.90
44190;DHT22;29856;52.144;5.430;2023-12-29T00:14:36;11.20;99.90
44190;DHT22;29856;52.144;5.430;2023-12-29T00:17:02;11.20;99.90
44190;DHT22;29856;52.144;5.430;2023-12-29T00:19:28;11.20;99.90
44190;DHT22;29856;52.144;5.430;2023-12-29T00:21:53;11.10;99.90
44190;DHT22;29856;52.144;5.430;2023-12-29T00:24:19;11.10;99.90
44190;DHT22;29856;52.144;5.430;2023-12-29T00:26:44;11.00;99.90
44190;DHT22;29856;52.144;5.430;2023-12-29T00:29:10;10.90;99.90
44190;DHT22;29856;52.144;5.430;2023-12-29T00:31:35;10.80;99.90
44190;DHT22;29856;52.144;5.430;2023-12-29T00:34:01;10.80;99.90
44190;DHT22;29856;52.144;5.430;2023-12-29T00:36:26;10.80;99.90
44190;DHT22;29856;52.144;5.430;2023-12-29T00:38:52;10.80;99.90
44190;DHT22;29856;52.144;5.430;2023-12-29T00:41:17;10.80;99.90
44190;DHT22;29856;52.144;5.430;2023-12-29T00:43:43;10.70;99.90
44190;DHT22;29856;52.144;5.430;2023-12-29T00:46:08;10.70;99.90
44190;DHT22;29856;52.144;5.430;2023-12-29T00:48:34;10.80;99.90
44190;DHT22;29856;52.144;5.430;2023-12-29T00:51:04;10.90;99.90
44190;DHT22;29856;52.144;5.430;2023-12-29T00:53:29;10.80;99.90
44190;DHT22;29856;52.144;5.430;2023-12-29T00:55:55;10.90;99.90
44190;DHT22;29856;52.144;5.430;2023-12-29T00:58:20;10.90;99.90
44190;DHT22;29856;52.144;5.430;2023-12-29T01:00:46;10.90;99.90
44190;DHT22;29856;52.144;5.430;2023-12-29T01:03:11;11.00;99.90
44190;DHT22;29856;52.144;5.430;2023-12-29T01:05:37;11.00;99.90
44190;DHT22;29856;52.144;5.430;2023-12-29T01:08:02;11.00;99.90
44190;DHT22;29856;52.144;5.430;2023-12-29T01:10:28;11.00;99.90
44190;DHT22;29856;52.144;5.430;2023-12-29T01:12:53;11.10;99.90
44190;DHT22;29856;52.144;5.430;2023-12-29T01:15:19;11.10;99.90
44190;DHT22;29856;52.144;5.430;2023-12-29T01:17:44;11.10;99.90
44190;DHT22;29856;52.144;5.430;2023-12-29T01:20:10;11.10;99.90
44190;DHT22;29856;52.144;5.430;2023-12-29T01:22:35;11.10;99.90
44190;DHT22;29856;52.144;5.430;2023-12-29T01:25:01;11.10;99.90
44190;DHT22;29856;52.144;5.430;2023-12-29T01:27:27;11.10;99.90
44190;DHT22;29856;52.144;5.430;2023-12-29T01:29:52;11.10;99.90
44190;DHT22;29856;52.144;5.430;2023-12-29T01:32:18;11.10;99.90
44190;DHT22;29856;52.144;5.430;2023-12-29T01:34:44;11.20;99.90
44190;DHT22;29856;52.144;5.430;2023-12-29T01:37:09;11.10;99.90
44190;DHT22;29856;52.144;5.430;2023-12-29T01:39:35;10.90;99.90
44190;DHT22;29856;52.144;5.430;2023-12-29T01:42:00;11.00;99.90
44190;DHT22;29856;52.144;5.430;2023-12-29T01:44:26;11.10;99.90
44190;DHT22;29856;52.144;5.430;2023-12-29T01:46:55;11.10;99.90
44190;DHT22;29856;52.144;5.430;2023-12-29T01:49:21;11.10;99.90
44190;DHT22;29856;52.144;5.430;2023-12-29T01:51:54;11.10;99.90
44190;DHT22;29856;52.144;5.430;2023-12-29T01:54:21;11.00;99.90
44190;DHT22;29856;52.144;5.430;2023-12-29T01:56:50;11.10;99.90
44190;DHT22;29856;52.144;5.430;2023-12-29T01:59:16;11.10;99.90
44190;DHT22;29856;52.144;5.430;2023-12-29T02:01:42;11.00;99.90
44190;DHT22;29856;52.144;5.430;2023-12-29T02:04:09;11.00;99.90
44190;DHT22;29856;52.144;5.430;2023-12-29T02:06:36;11.00;99.90
44190;DHT22;29856;52.144;5.430;2023-12-29T02:09:03;11.00;99.90
44190;DHT22;29856;52.144;5.430;2023-12-29T02:11:28;11.00;99.90
44190;DHT22;29856;52.144;5.430;2023-12-29T02:13:54;11.00;99.90
44190;DHT22;29856;52.144;5.430;2023-12-29T02:19:37;11.00;99.90
44190;DHT22;29856;52.144;5.430;2023-12-29T02:22:03;11.00;99.90
44190;DHT22;29856;52.144;5.430;2023-12-29T02:24:29;11.00;99.90
44190;DHT22;29856;52.144;5.430;2023-12-29T02:27:03;11.00;99.90
44190;DHT22;29856;52.144;5.430;2023-12-29T02:29:32;11.00;99.90
44190;DHT22;29856;52.144;5.430;2023-12-29T02:31:59;11.00;99.90
44190;DHT22;29856;52.144;5.430;2023-12-29T02:34:28;11.00;99.90
44190;DHT22;29856;52.144;5.430;2023-12-29T02:36:55;11.00;99.90
44190;DHT22;29856;52.144;5.430;2023-12-29T02:39:21;11.00;99.90
44190;DHT22;29856;52.144;5.430;2023-12-29T02:41:47;10.90;99.90
44190;DHT22;29856;52.144;5.430;2023-12-29T02:44:13;10.90;99.90
44190;DHT22;29856;52.144;5.430;2023-12-29T02:46:38;10.90;99.90
44190;DHT22;29856;52.144;5.430;2023-12-29T02:49:04;10.90;99.90
44190;DHT22;29856;52.144;5.430;2023-12-29T02:51:29;10.90;99.90
44190;DHT22;29856;52.144;5.430;2023-12-29T02:53:55;10.90;99.90
44190;DHT22;29856;52.144;5.430;2023-12-29T02:56:20;10.80;99.90
44190;DHT22;29856;52.144;5.430;2023-12-29T02:58:46;10.80;99.90
44190;DHT22;29856;52.144;5.430;2023-12-29T03:01:11;10.80;99.90
44190;DHT22;29856;52.144;5.430;2023-12-29T03:03:37;10.80;99.90
44190;DHT22;29856;52.144;5.430;2023-12-29T03:06:02;10.70;99.90
44190;DHT22;29856;52.144;5.430;2023-12-29T03:08:28;10.70;99.90
44190;DHT22;29856;52.144;5.430;2023-12-29T03:10:53;10.70;99.90
44190;DHT22;29856;52.144;5.430;2023-12-29T03:13:19;10.70;99.90
44190;DHT22;29856;52.144;5.430;2023-12-29T03:15:44;10.60;99.90
44190;DHT22;29856;52.144;5.430;2023-12-29T03:18:10;10.60;99.90
44190;DHT22;29856;52.144;5.430;2023-12-29T03:20:36;10.60;99.90
44190;DHT22;29856;52.144;5.430;2023-12-29T03:23:03;10.60;99.90
44190;DHT22;29856;52.144;5.430;2023-12-29T03:25:29;10.60;99.90
44190;DHT22;29856;52.144;5.430;2023-12-29T03:27:54;10.50;99.90
44190;DHT22;29856;52.144;5.430;2023-12-29T03:30:19;10.60;99.90
44190;DHT22;29856;52.144;5.430;2023-12-29T03:32:45;10.50;99.90
44190;DHT22;29856;52.144;5.430;2023-12-29T03:35:10;10.50;99.90
44190;DHT22;29856;52.144;5.430;2023-12-29T03:37:37;10.50;99.90
44190;DHT22;29856;52.144;5.430;2023-12-29T03:40:03;10.50;99.90
44190;DHT22;29856;52.144;5.430;2023-12-29T03:42:29;10.50;99.90
44190;DHT22;29856;52.144;5.430;2023-12-29T03:44:54;10.50;99.90
44190;DHT22;29856;52.144;5.430;2023-12-29T03:47:20;10.40;99.90
44190;DHT22;29856;52.144;5.430;2023-12-29T03:49:45;10.40;99.90
44190;DHT22;29856;52.144;5.430;2023-12-29T03:52:11;10.40;99.90
44190;DHT22;29856;52.144;5.430;2023-12-29T03:54:36;10.40;99.90
44190;DHT22;29856;52.144;5.430;2023-12-29T03:57:03;10.40;99.90
44190;DHT22;29856;52.144;5.430;2023-12-29T03:59:28;10.50;99.90
44190;DHT22;29856;52.144;5.430;2023-12-29T04:01:54;10.40;99.90
44190;DHT22;29856;52.144;5.430;2023-12-29T04:04:19;10.40;99.90
44190;DHT22;29856;52.144;5.430;2023-12-29T04:06:45;10.40;99.90
44190;DHT22;29856;52.144;5.430;2023-12-29T04:09:10;10.50;99.90
44190;DHT22;29856;52.144;5.430;2023-12-29T04:11:36;10.50;99.90
44190;DHT22;29856;52.144;5.430;2023-12-29T04:14:01;10.50;99.90
44190;DHT22;29856;52.144;5.430;2023-12-29T04:16:26;10.60;99.90
44190;DHT22;29856;52.144;5.430;2023-12-29T04:18:52;10.50;99.90
44190;DHT22;29856;52.144;5.430;2023-12-29T04:21:17;10.40;99.90
44190;DHT22;29856;52.144;5.430;2023-12-29T04:23:43;10.40;99.90
44190;DHT22;29856;52.144;5.430;2023-12-29T04:26:08;10.40;99.90
44190;DHT22;29856;52.144;5.430;2023-12-29T04:28:34;10.40;99.90
44190;DHT22;29856;52.144;5.430;2023-12-29T04:30:59;10.40;99.90
44190;DHT22;29856;52.144;5.430;2023-12-29T04:33:25;10.40;99.90
44190;DHT22;29856;52.144;5.430;2023-12-29T04:35:51;10.40;99.90
44190;DHT22;29856;52.144;5.430;2023-12-29T04:38:16;10.40;99.90
44190;DHT22;29856;52.144;5.430;2023-12-29T04:40:42;10.40;99.90
44190;DHT22;29856;52.144;5.430;2023-12-29T04:43:07;10.40;99.90
44190;DHT22;29856;52.144;5.430;2023-12-29T04:45:33;10.40;99.90
44190;DHT22;29856;52.144;5.430;2023-12-29T04:47:58;10.40;99.90
44190;DHT22;29856;52.144;5.430;2023-12-29T04:50:24;10.50;99.90
44190;DHT22;29856;52.144;5.430;2023-12-29T04:52:49;10.40;99.90
44190;DHT22;29856;52.144;5.430;2023-12-29T04:55:15;10.50;99.90
44190;DHT22;29856;52.144;5.430;2023-12-29T04:57:40;10.50;99.90
44190;DHT22;29856;52.144;5.430;2023-12-29T05:00:06;10.50;99.90
44190;DHT22;29856;52.144;5.430;2023-12-29T05:02:32;10.50;99.90
44190;DHT22;29856;52.144;5.430;2023-12-29T05:04:57;10.50;99.90
44190;DHT22;29856;52.144;5.430;2023-12-29T05:07:24;10.50;99.90
44190;DHT22;29856;52.144;5.430;2023-12-29T05:09:49;10.50;99.90
44190;DHT22;29856;52.144;5.430;2023-12-29T05:12:15;10.60;99.90
44190;DHT22;29856;52.144;5.430;2023-12-29T05:14:40;10.60;99.90
44190;DHT22;29856;52.144;5.430;2023-12-29T05:17:05;10.50;99.90
44190;DHT22;29856;52.144;5.430;2023-12-29T05:19:31;10.60;99.90
44190;DHT22;29856;52.144;5.430;2023-12-29T05:21:56;10.50;99.90
44190;DHT22;29856;52.144;5.430;2023-12-29T05:24:22;10.60;99.90
44190;DHT22;29856;52.144;5.430;2023-12-29T05:26:47;10.60;99.90
44190;DHT22;29856;52.144;5.430;2023-12-29T05:29:13;10.60;99.90
44190;DHT22;29856;52.144;5.430;2023-12-29T05:31:39;10.50;99.90
44190;DHT22;29856;52.144;5.430;2023-12-29T05:34:04;10.60;99.90
44190;DHT22;29856;52.144;5.430;2023-12-29T05:36:30;10.60;99.90
44190;DHT22;29856;52.144;5.430;2023-12-29T05:38:56;10.60;99.90
44190;DHT22;29856;52.144;5.430;2023-12-29T05:41:21;10.60;99.90
44190;DHT22;29856;52.144;5.430;2023-12-29T05:43:47;10.60;99.90
44190;DHT22;29856;52.144;5.430;2023-12-29T05:46:12;10.60;99.90
44190;DHT22;29856;52.144;5.430;2023-12-29T05:48:39;10.60;99.90
44190;DHT22;29856;52.144;5.430;2023-12-29T05:51:12;10.60;99.90
44190;DHT22;29856;52.144;5.430;2023-12-29T05:53:39;10.60;99.90
44190;DHT22;29856;52.144;5.430;2023-12-29T05:56:05;10.60;99.90
44190;DHT22;29856;52.144;5.430;2023-12-29T05:58:31;10.60;99.90
44190;DHT22;29856;52.144;5.430;2023-12-29T06:00:56;10.60;99.90
44190;DHT22;29856;52.144;5.430;2023-12-29T06:03:22;10.60;99.90
44190;DHT22;29856;52.144;5.430;2023-12-29T06:05:48;10.60;99.90
44190;DHT22;29856;52.144;5.430;2023-12-29T06:08:13;10.60;99.90
44190;DHT22;29856;52.144;5.430;2023-12-29T06:10:39;10.70;99.90
44190;DHT22;29856;52.144;5.430;2023-12-29T06:13:04;10.60;99.90
44190;DHT22;29856;52.144;5.430;2023-12-29T06:15:30;10.60;99.90
44190;DHT22;29856;52.144;5.430;2023-12-29T06:17:56;10.60;99.90
44190;DHT22;29856;52.144;5.430;2023-12-29T06:20:21;10.60;99.90
44190;DHT22;29856;52.144;5.430;2023-12-29T06:22:47;10.70;99.90
44190;DHT22;29856;52.144;5.430;2023-12-29T06:25:12;10.70;99.90
44190;DHT22;29856;52.144;5.430;2023-12-29T06:27:39;10.70;99.90
44190;DHT22;29856;52.144;5.430;2023-12-29T06:30:06;10.70;99.90
44190;DHT22;29856;52.144;5.430;2023-12-29T06:32:32;10.70;99.90
44190;DHT22;29856;52.144;5.430;2023-12-29T06:34:57;10.70;99.90
44190;DHT22;29856;52.144;5.430;2023-12-29T06:37:23;10.70;99.90
44190;DHT22;29856;52.144;5.430;2023-12-29T06:39:48;10.70;99.90
44190;DHT22;29856;52.144;5.430;2023-12-29T06:42:14;10.70;99.90
44190;DHT22;29856;52.144;5.430;2023-12-29T06:44:39;10.70;99.90
44190;DHT22;29856;52.144;5.430;2023-12-29T06:47:05;10.70;99.90
44190;DHT22;29856;52.144;5.430;2023-12-29T06:49:31;10.70;99.90
44190;DHT22;29856;52.144;5.430;2023-12-29T06:51:56;10.80;99.90
44190;DHT22;29856;52.144;5.430;2023-12-29T06:54:21;10.70;99.90
44190;DHT22;29856;52.144;5.430;2023-12-29T06:56:47;10.70;99.90
44190;DHT22;29856;52.144;5.430;2023-12-29T06:59:12;10.70;99.90
44190;DHT22;29856;52.144;5.430;2023-12-29T07:01:39;10.80;99.90
44190;DHT22;29856;52.144;5.430;2023-12-29T07:04:04;10.70;99.90
44190;DHT22;29856;52.144;5.430;2023-12-29T07:06:30;10.70;99.90
44190;DHT22;29856;52.144;5.430;2023-12-29T07:08:55;10.70;99.90
44190;DHT22;29856;52.144;5.430;2023-12-29T07:11:21;10.70;99.90
44190;DHT22;29856;52.144;5.430;2023-12-29T07:13:46;10.70;99.90
44190;DHT22;29856;52.144;5.430;2023-12-29T07:16:12;10.70;99.90
44190;DHT22;29856;52.144;5.430;2023-12-29T07:18:37;10.80;99.90
44190;DHT22;29856;52.144;5.430;2023-12-29T07:21:03;10.70;99.90
44190;DHT22;29856;52.144;5.430;2023-12-29T07:23:29;10.70;99.90
44190;DHT22;29856;52.144;5.430;2023-12-29T07:25:54;10.70;99.90
44190;DHT22;29856;52.144;5.430;2023-12-29T07:28:20;10.70;99.90
44190;DHT22;29856;52.144;5.430;2023-12-29T07:30:45;10.70;99.90
44190;DHT22;29856;52.144;5.430;2023-12-29T07:33:11;10.70;99.90
44190;DHT22;29856;52.144;5.430;2023-12-29T07:35:36;10.70;99.90
44190;DHT22;29856;52.144;5.430;2023-12-29T07:38:02;10.60;99.90
44190;DHT22;29856;52.144;5.430;2023-12-29T07:40:27;10.70;99.90
44190;DHT22;29856;52.144;5.430;2023-12-29T07:42:53;10.70;99.90
44190;DHT22;29856;52.144;5.430;2023-12-29T07:45:18;10.70;99.90
44190;DHT22;29856;52.144;5.430;2023-12-29T07:47:44;10.70;99.90
44190;DHT22;29856;52.144;5.430;2023-12-29T07:50:09;10.70;99.90
44190;DHT22;29856;52.144;5.430;2023-12-29T07:52:35;10.60;99.90
44190;DHT22;29856;52.144;5.430;2023-12-29T07:55:00;10.60;99.90
44190;DHT22;29856;52.144;5.430;2023-12-29T07:57:26;10.60;99.90
44190;DHT22;29856;52.144;5.430;2023-12-29T07:59:51;10.60;99.90
44190;DHT22;29856;52.144;5.430;2023-12-29T08:02:17;10.60;99.90
44190;DHT22;29856;52.144;5.430;2023-12-29T08:04:42;10.60;99.90
44190;DHT22;29856;52.144;5.430;2023-12-29T08:07:08;10.60;99.90
44190;DHT22;29856;52.144;5.430;2023-12-29T08:09:33;10.60;99.90
44190;DHT22;29856;52.144;5.430;2023-12-29T08:11:59;10.60;99.90
44190;DHT22;29856;52.144;5.430;2023-12-29T08:14:24;10.70;99.90
44190;DHT22;29856;52.144;5.430;2023-12-29T08:16:50;10.60;99.90
44190;DHT22;29856;52.144;5.430;2023-12-29T08:19:15;10.60;99.90
44190;DHT22;29856;52.144;5.430;2023-12-29T08:21:41;10.70;99.90
44190;DHT22;29856;52.144;5.430;2023-12-29T08:24:06;10.70;99.90
44190;DHT22;29856;52.144;5.430;2023-12-29T08:26:32;10.70;99.90
44190;DHT22;29856;52.144;5.430;2023-12-29T08:28:57;10.70;99.90
44190;DHT22;29856;52.144;5.430;2023-12-29T08:31:23;10.80;99.90
44190;DHT22;29856;52.144;5.430;2023-12-29T08:33:48;10.70;99.90
44190;DHT22;29856;52.144;5.430;2023-12-29T08:36:17;10.70;99.90
44190;DHT22;29856;52.144;5.430;2023-12-29T08:38:43;10.70;99.90
44190;DHT22;29856;52.144;5.430;2023-12-29T08:41:08;10.70;99.90
44190;DHT22;29856;52.144;5.430;2023-12-29T08:43:34;10.70;99.90
44190;DHT22;29856;52.144;5.430;2023-12-29T08:45:59;10.70;99.90
44190;DHT22;29856;52.144;5.430;2023-12-29T08:48:24;10.70;99.90
44190;DHT22;29856;52.144;5.430;2023-12-29T08:50:50;10.70;99.90
44190;DHT22;29856;52.144;5.430;2023-12-29T08:53:16;10.70;99.90
44190;DHT22;29856;52.144;5.430;2023-12-29T08:55:42;10.70;99.90
44190;DHT22;29856;52.144;5.430;2023-12-29T08:58:07;10.70;99.90
44190;DHT22;29856;52.144;5.430;2023-12-29T09:00:33;10.80;99.90
44190;DHT22;29856;52.144;5.430;2023-12-29T09:02:59;10.70;99.90
44190;DHT22;29856;52.144;5.430;2023-12-29T09:05:24;10.80;99.90
44190;DHT22;29856;52.144;5.430;2023-12-29T09:07:50;10.70;99.90
44190;DHT22;29856;52.144;5.430;2023-12-29T09:10:15;10.70;99.90
44190;DHT22;29856;52.144;5.430;2023-12-29T09:12:41;10.70;99.90
44190;DHT22;29856;52.144;5.430;2023-12-29T09:15:07;10.70;99.90
44190;DHT22;29856;52.144;5.430;2023-12-29T09:17:33;10.70;99.90
44190;DHT22;29856;52.144;5.430;2023-12-29T09:19:59;10.70;99.90
44190;DHT22;29856;52.144;5.430;2023-12-29T09:22:25;10.70;99.90
44190;DHT22;29856;52.144;5.430;2023-12-29T09:24:50;10.70;99.90
44190;DHT22;29856;52.144;5.430;2023-12-29T09:27:16;10.70;99.90
44190;DHT22;29856;52.144;5.430;2023-12-29T09:29:41;10.80;99.90
44190;DHT22;29856;52.144;5.430;2023-12-29T09:32:07;10.80;99.90
44190;DHT22;29856;52.144;5.430;2023-12-29T09:34:32;10.80;99.90
44190;DHT22;29856;52.144;5.430;2023-12-29T09:36:58;10.80;99.90
44190;DHT22;29856;52.144;5.430;2023-12-29T09:39:23;10.90;99.90
44190;DHT22;29856;52.144;5.430;2023-12-29T09:41:52;11.00;99.90
44190;DHT22;29856;52.144;5.430;2023-12-29T09:44:20;10.90;99.90
44190;DHT22;29856;52.144;5.430;2023-12-29T09:46:53;10.90;99.90
44190;DHT22;29856;52.144;5.430;2023-12-29T09:49:19;11.00;99.90
44190;DHT22;29856;52.144;5.430;2023-12-29T09:51:45;11.00;99.90
44190;DHT22;29856;52.144;5.430;2023-12-29T09:54:11;11.10;99.90
44190;DHT22;29856;52.144;5.430;2023-12-29T09:56:37;11.10;99.90
44190;DHT22;29856;52.144;5.430;2023-12-29T09:59:04;11.10;99.90
44190;DHT22;29856;52.144;5.430;2023-12-29T10:01:30;11.10;99.90
44190;DHT22;29856;52.144;5.430;2023-12-29T10:03:56;11.20;99.90
44190;DHT22;29856;52.144;5.430;2023-12-29T10:06:24;11.20;99.90
44190;DHT22;29856;52.144;5.430;2023-12-29T10:08:50;11.20;99.90
44190;DHT22;29856;52.144;5.430;2023-12-29T10:11:18;11.20;99.90
44190;DHT22;29856;52.144;5.430;2023-12-29T10:13:47;11.30;99.90
44190;DHT22;29856;52.144;5.430;2023-12-29T10:19:30;11.30;99.90
44190;DHT22;29856;52.144;5.430;2023-12-29T10:22:18;11.30;99.90
44190;DHT22;29856;52.144;5.430;2023-12-29T10:24:45;11.40;99.90
44190;DHT22;29856;52.144;5.430;2023-12-29T10:27:10;11.40;99.90
44190;DHT22;29856;52.144;5.430;2023-12-29T10:29:36;11.40;99.90
44190;DHT22;29856;52.144;5.430;2023-12-29T10:32:02;11.40;99.90
44190;DHT22;29856;52.144;5.430;2023-12-29T10:34:27;11.40;99.90
44190;DHT22;29856;52.144;5.430;2023-12-29T10:36:53;11.40;99.90
44190;DHT22;29856;52.144;5.430;2023-12-29T10:39:19;11.60;99.90
44190;DHT22;29856;52.144;5.430;2023-12-29T10:41:44;11.50;99.90
44190;DHT22;29856;52.144;5.430;2023-12-29T10:44:10;11.50;99.90
44190;DHT22;29856;52.144;5.430;2023-12-29T10:46:35;11.50;99.90
44190;DHT22;29856;52.144;5.430;2023-12-29T10:49:08;11.50;99.90
44190;DHT22;29856;52.144;5.430;2023-12-29T10:51:33;11.50;99.90
44190;DHT22;29856;52.144;5.430;2023-12-29T10:53:59;11.50;99.90
44190;DHT22;29856;52.144;5.430;2023-12-29T10:56:24;11.60;99.90
44190;DHT22;29856;52.144;5.430;2023-12-29T10:59:02;11.50;99.90
44190;DHT22;29856;52.144;5.430;2023-12-29T11:01:32;11.50;99.90
44190;DHT22;29856;52.144;5.430;2023-12-29T11:04:05;11.50;99.90
44190;DHT22;29856;52.144;5.430;2023-12-29T11:06:44;11.50;99.90
44190;DHT22;29856;52.144;5.430;2023-12-29T11:09:10;11.50;99.90
44190;DHT22;29856;52.144;5.430;2023-12-29T11:11:36;11.50;99.90
44190;DHT22;29856;52.144;5.430;2023-12-29T11:14:02;11.50;99.90
44190;DHT22;29856;52.144;5.430;2023-12-29T11:16:29;11.50;99.90
44190;DHT22;29856;52.144;5.430;2023-12-29T11:18:56;11.50;99.90
44190;DHT22;29856;52.144;5.430;2023-12-29T11:21:22;11.50;99.90
44190;DHT22;29856;52.144;5.430;2023-12-29T11:23:47;11.50;99.90
44190;DHT22;29856;52.144;5.430;2023-12-29T11:26:13;11.50;99.90
44190;DHT22;29856;52.144;5.430;2023-12-29T11:28:39;11.60;99.90
44190;DHT22;29856;52.144;5.430;2023-12-29T11:31:06;11.60;99.90
44190;DHT22;29856;52.144;5.430;2023-12-29T11:33:38;11.70;99.90
44190;DHT22;29856;52.144;5.430;2023-12-29T11:36:17;11.70;99.90
44190;DHT22;29856;52.144;5.430;2023-12-29T11:39:04;11.70;99.90
44190;DHT22;29856;52.144;5.430;2023-12-29T11:41:45;11.70;99.90
44190;DHT22;29856;52.144;5.430;2023-12-29T11:44:12;11.80;99.90
44190;DHT22;29856;52.144;5.430;2023-12-29T11:46:43;11.80;99.90
44190;DHT22;29856;52.144;5.430;2023-12-29T11:49:10;11.80;99.90
44190;DHT22;29856;52.144;5.430;2023-12-29T11:54:04;11.80;99.90
44190;DHT22;29856;52.144;5.430;2023-12-29T11:56:37;11.80;99.90
44190;DHT22;29856;52.144;5.430;2023-12-29T12:01:57;11.90;99.90
44190;DHT22;29856;52.144;5.430;2023-12-29T12:04:39;11.80;99.90
44190;DHT22;29856;52.144;5.430;2023-12-29T12:09:51;11.90;99.90
44190;DHT22;29856;52.144;5.430;2023-12-29T12:12:40;11.80;99.90
44190;DHT22;29856;52.144;5.430;2023-12-29T12:18:10;11.80;99.90
44190;DHT22;29856;52.144;5.430;2023-12-29T12:20:36;11.80;99.90
44190;DHT22;29856;52.144;5.430;2023-12-29T12:23:12;11.90;99.90
44190;DHT22;29856;52.144;5.430;2023-12-29T12:25:42;11.90;99.90
44190;DHT22;29856;52.144;5.430;2023-12-29T12:28:10;11.80;99.90
44190;DHT22;29856;52.144;5.430;2023-12-29T12:30:36;11.90;99.90
44190;DHT22;29856;52.144;5.430;2023-12-29T12:33:03;11.90;99.90
44190;DHT22;29856;52.144;5.430;2023-12-29T12:35:29;11.90;99.90
44190;DHT22;29856;52.144;5.430;2023-12-29T12:38:14;11.90;99.90
44190;DHT22;29856;52.144;5.430;2023-12-29T12:40:40;11.90;99.90
44190;DHT22;29856;52.144;5.430;2023-12-29T12:43:06;11.90;99.90
44190;DHT22;29856;52.144;5.430;2023-12-29T12:45:41;11.90;99.90
44190;DHT22;29856;52.144;5.430;2023-12-29T12:48:27;11.90;99.90
44190;DHT22;29856;52.144;5.430;2023-12-29T12:50:54;12.00;99.90
44190;DHT22;29856;52.144;5.430;2023-12-29T12:53:20;11.90;99.90
44190;DHT22;29856;52.144;5.430;2023-12-29T12:55:49;11.90;99.90
44190;DHT22;29856;52.144;5.430;2023-12-29T12:58:16;12.00;99.90
44190;DHT22;29856;52.144;5.430;2023-12-29T13:00:42;11.90;99.90
44190;DHT22;29856;52.144;5.430;2023-12-29T13:03:08;11.90;99.90
44190;DHT22;29856;52.144;5.430;2023-12-29T13:05:35;11.90;99.90
44190;DHT22;29856;52.144;5.430;2023-12-29T13:08:01;11.90;99.90
44190;DHT22;29856;52.144;5.430;2023-12-29T13:10:27;11.90;99.90
44190;DHT22;29856;52.144;5.430;2023-12-29T13:12:53;12.00;99.90
44190;DHT22;29856;52.144;5.430;2023-12-29T13:15:18;12.00;99.90
44190;DHT22;29856;52.144;5.430;2023-12-29T13:17:53;11.90;99.90
44190;DHT22;29856;52.144;5.430;2023-12-29T13:20:19;12.00;99.90
44190;DHT22;29856;52.144;5.430;2023-12-29T13:22:49;12.00;99.90
44190;DHT22;29856;52.144;5.430;2023-12-29T13:25:22;12.00;99.90
44190;DHT22;29856;52.144;5.430;2023-12-29T13:27:50;11.90;99.90
44190;DHT22;29856;52.144;5.430;2023-12-29T13:30:16;11.90;99.90
44190;DHT22;29856;52.144;5.430;2023-12-29T13:32:43;11.80;99.90
44190;DHT22;29856;52.144;5.430;2023-12-29T13:35:35;11.80;99.90
44190;DHT22;29856;52.144;5.430;2023-12-29T13:43:17;11.80;99.90
44190;DHT22;29856;52.144;5.430;2023-12-29T13:45:44;11.90;99.90
44190;DHT22;29856;52.144;5.430;2023-12-29T13:48:10;11.90;99.90
44190;DHT22;29856;52.144;5.430;2023-12-29T13:50:36;11.90;99.90
44190;DHT22;29856;52.144;5.430;2023-12-29T13:53:01;11.90;99.90
44190;DHT22;29856;52.144;5.430;2023-12-29T13:55:27;11.90;99.90
44190;DHT22;29856;52.144;5.430;2023-12-29T13:57:53;12.00;99.90
44190;DHT22;29856;52.144;5.430;2023-12-29T14:00:20;11.90;99.90
44190;DHT22;29856;52.144;5.430;2023-12-29T14:02:57;11.90;99.90
44190;DHT22;29856;52.144;5.430;2023-12-29T14:05:48;11.90;99.90
44190;DHT22;29856;52.144;5.430;2023-12-29T14:08:18;11.90;99.90
44190;DHT22;29856;52.144;5.430;2023-12-29T14:10:44;11.90;99.90
44190;DHT22;29856;52.144;5.430;2023-12-29T14:13:18;11.80;99.90
44190;DHT22;29856;52.144;5.430;2023-12-29T14:15:45;11.80;99.90
44190;DHT22;29856;52.144;5.430;2023-12-29T14:18:33;11.90;99.90
44190;DHT22;29856;52.144;5.430;2023-12-29T14:21:00;12.00;99.90
44190;DHT22;29856;52.144;5.430;2023-12-29T14:23:26;11.80;99.90
44190;DHT22;29856;52.144;5.430;2023-12-29T14:25:51;11.80;99.90
44190;DHT22;29856;52.144;5.430;2023-12-29T14:28:19;11.60;99.90
44190;DHT22;29856;52.144;5.430;2023-12-29T14:30:45;11.70;99.90
44190;DHT22;29856;52.144;5.430;2023-12-29T14:33:11;11.80;99.90
44190;DHT22;29856;52.144;5.430;2023-12-29T14:35:37;11.70;99.90
44190;DHT22;29856;52.144;5.430;2023-12-29T14:38:03;11.70;99.90
44190;DHT22;29856;52.144;5.430;2023-12-29T14:40:29;11.80;99.90
44190;DHT22;29856;52.144;5.430;2023-12-29T14:42:54;11.80;99.90
44190;DHT22;29856;52.144;5.430;2023-12-29T14:45:20;11.70;99.90
44190;DHT22;29856;52.144;5.430;2023-12-29T14:47:45;11.70;99.90
44190;DHT22;29856;52.144;5.430;2023-12-29T14:50:11;11.70;99.90
44190;DHT22;29856;52.144;5.430;2023-12-29T14:52:37;11.70;99.90
44190;DHT22;29856;52.144;5.430;2023-12-29T14:55:03;11.70;99.90
44190;DHT22;29856;52.144;5.430;2023-12-29T14:57:29;11.60;99.90
44190;DHT22;29856;52.144;5.430;2023-12-29T14:59:54;11.60;99.90
44190;DHT22;29856;52.144;5.430;2023-12-29T15:02:20;11.60;99.90
44190;DHT22;29856;52.144;5.430;2023-12-29T15:04:46;11.50;99.90
44190;DHT22;29856;52.144;5.430;2023-12-29T15:07:11;11.40;99.90
44190;DHT22;29856;52.144;5.430;2023-12-29T15:09:36;11.30;99.90
44190;DHT22;29856;52.144;5.430;2023-12-29T15:12:02;11.30;99.90
44190;DHT22;29856;52.144;5.430;2023-12-29T15:14:28;11.30;99.90
44190;DHT22;29856;52.144;5.430;2023-12-29T15:16:53;11.30;99.90
44190;DHT22;29856;52.144;5.430;2023-12-29T15:19:19;11.30;99.90
44190;DHT22;29856;52.144;5.430;2023-12-29T15:21:44;11.30;99.90
44190;DHT22;29856;52.144;5.430;2023-12-29T15:24:10;11.30;99.90
44190;DHT22;29856;52.144;5.430;2023-12-29T15:26:35;11.40;99.90
44190;DHT22;29856;52.144;5.430;2023-12-29T15:29:01;11.40;99.90
44190;DHT22;29856;52.144;5.430;2023-12-29T15:31:26;11.30;99.90
44190;DHT22;29856;52.144;5.430;2023-12-29T15:33:52;11.20;99.90
44190;DHT22;29856;52.144;5.430;2023-12-29T15:36:17;11.10;99.90
44190;DHT22;29856;52.144;5.430;2023-12-29T15:38:43;11.00;99.90
44190;DHT22;29856;52.144;5.430;2023-12-29T15:41:08;10.80;99.90
44190;DHT22;29856;52.144;5.430;2023-12-29T15:43:34;10.70;99.90
44190;DHT22;29856;52.144;5.430;2023-12-29T15:45:59;10.70;99.90
44190;DHT22;29856;52.144;5.430;2023-12-29T15:48:25;10.60;99.90
44190;DHT22;29856;52.144;5.430;2023-12-29T15:50:50;10.60;99.90